Time;durP1;ratioP1;P1;durP2;ratioP2;P2;SDS_P1;SDS_P2;PMS_P1;PMS_P2;Temp;Humidity;BMP_temperature;BMP_pressure;BME280_temperature;BME280_humidity;BME280_pressure;Samples;Min_cycle;Max_cycle;Signal;HPM_P1;HPM_P2
2021/10/04 00:02:06;;;;;;;10.63;6.95;;;11.00;99.90;;;;;;5105981;28;20066;-47
2021/10/04 00:04:33;;;;;;;13.65;6.82;;;11.00;99.90;;;;;;5107714;28;20559;-45
2021/10/04 00:06:59;;;;;;;13.05;6.85;;;11.00;99.90;;;;;;5106664;28;20059;-47
2021/10/04 00:09:26;;;;;;;11.73;6.55;;;11.00;99.90;;;;;;5107859;28;20047;-45
2021/10/04 00:11:52;;;;;;;11.65;6.43;;;11.00;99.90;;;;;;5107337;28;20062;-45
2021/10/04 00:14:23;;;;;;;11.63;6.40;;;11.10;99.90;;;;;;5089558;28;20484;-46
2021/10/04 00:16:55;;;;;;;10.45;6.00;;;11.00;99.90;;;;;;5107641;28;20051;-46
2021/10/04 00:19:21;;;;;;;12.90;6.90;;;11.10;99.90;;;;;;5107345;28;20190;-48
2021/10/04 00:21:50;;;;;;;12.20;7.07;;;11.00;99.90;;;;;;5105414;28;20074;-49
2021/10/04 00:24:17;;;;;;;10.70;6.93;;;11.00;99.90;;;;;;5106869;28;20056;-47
2021/10/04 00:26:43;;;;;;;8.45;6.05;;;11.00;99.90;;;;;;5099317;28;20055;-47
2021/10/04 00:29:12;;;;;;;10.13;6.25;;;11.00;99.90;;;;;;5105825;28;20062;-47
2021/10/04 00:31:38;;;;;;;9.45;6.05;;;10.90;99.90;;;;;;5107715;28;20055;-48
2021/10/04 00:34:04;;;;;;;14.73;6.70;;;11.00;99.90;;;;;;5107608;28;20086;-46
2021/10/04 00:36:30;;;;;;;12.23;5.90;;;11.00;99.90;;;;;;5107692;28;20094;-48
2021/10/04 00:38:56;;;;;;;12.38;6.45;;;11.00;99.90;;;;;;5107943;28;20039;-47
2021/10/04 00:41:23;;;;;;;10.13;6.28;;;11.00;99.90;;;;;;5108170;28;20055;-44
2021/10/04 00:43:49;;;;;;;13.52;6.35;;;11.00;99.90;;;;;;5105741;28;20403;-45
2021/10/04 00:46:15;;;;;;;9.95;6.18;;;11.00;99.90;;;;;;5108168;28;20059;-44
2021/10/04 00:48:45;;;;;;;10.88;6.45;;;11.00;99.90;;;;;;5106792;28;20050;-45
2021/10/04 00:51:11;;;;;;;10.98;5.97;;;10.90;99.90;;;;;;5108498;28;20051;-46
2021/10/04 00:53:39;;;;;;;11.75;5.60;;;11.00;99.90;;;;;;5107104;28;20518;-47
2021/10/04 00:56:07;;;;;;;8.80;5.50;;;11.00;99.90;;;;;;5071034;28;20067;-48
2021/10/04 00:58:34;;;;;;;11.60;5.38;;;11.00;99.90;;;;;;5107633;28;20070;-46
2021/10/04 01:01:00;;;;;;;10.07;5.60;;;10.90;99.90;;;;;;5106696;28;20126;-45
2021/10/04 01:03:26;;;;;;;10.50;6.10;;;10.90;99.90;;;;;;5107707;28;20046;-44
2021/10/04 01:05:52;;;;;;;10.30;5.80;;;10.90;99.90;;;;;;5105423;28;20047;-45
2021/10/04 01:08:18;;;;;;;10.32;5.55;;;10.90;99.90;;;;;;5107013;28;20055;-48
2021/10/04 01:10:46;;;;;;;13.25;6.15;;;10.90;99.90;;;;;;5107232;28;20047;-45
2021/10/04 01:13:12;;;;;;;8.82;5.32;;;10.90;99.90;;;;;;5104691;28;20075;-47
2021/10/04 01:15:41;;;;;;;12.30;5.38;;;10.90;99.90;;;;;;5107078;28;20063;-45
2021/10/04 01:18:09;;;;;;;11.90;4.95;;;10.90;99.90;;;;;;5089055;28;20088;-46
2021/10/04 01:20:36;;;;;;;10.57;5.18;;;10.90;99.90;;;;;;5104559;28;20048;-46
2021/10/04 01:23:02;;;;;;;9.20;4.55;;;10.90;99.90;;;;;;5105513;28;20051;-45
2021/10/04 01:25:32;;;;;;;9.05;4.55;;;11.00;99.90;;;;;;5105187;28;20484;-45
2021/10/04 01:27:58;;;;;;;9.25;4.93;;;11.00;99.90;;;;;;5105459;28;20059;-46
2021/10/04 01:30:29;;;;;;;9.43;4.90;;;10.90;99.90;;;;;;5103036;28;20044;-45
2021/10/04 01:32:56;;;;;;;8.30;4.90;;;10.90;99.90;;;;;;5100852;28;20127;-45
2021/10/04 01:35:23;;;;;;;9.63;4.70;;;11.00;99.90;;;;;;5107092;28;20693;-45
2021/10/04 01:37:51;;;;;;;10.98;5.00;;;11.00;99.90;;;;;;5104755;28;20043;-44
2021/10/04 01:40:17;;;;;;;10.38;4.32;;;11.00;99.90;;;;;;5107393;28;20060;-45
2021/10/04 01:42:47;;;;;;;6.90;3.85;;;11.00;99.90;;;;;;5106438;28;20044;-46
2021/10/04 01:45:18;;;;;;;8.48;3.83;;;11.00;99.90;;;;;;5104565;28;21831;-47
2021/10/04 01:47:47;;;;;;;13.25;4.25;;;11.00;99.90;;;;;;5106025;28;20773;-46
2021/10/04 01:50:17;;;;;;;10.07;4.13;;;11.10;99.90;;;;;;5107463;28;20044;-45
2021/10/04 01:52:46;;;;;;;8.70;3.80;;;11.10;99.90;;;;;;5107667;28;20586;-47
2021/10/04 01:55:17;;;;;;;6.85;4.15;;;11.10;99.90;;;;;;5107766;28;20051;-44
2021/10/04 01:57:43;;;;;;;6.53;3.15;;;11.10;99.90;;;;;;5107011;28;20134;-44
2021/10/04 02:00:14;;;;;;;11.00;3.40;;;11.10;99.90;;;;;;5106819;28;20051;-45
2021/10/04 02:02:44;;;;;;;8.48;3.85;;;11.10;99.90;;;;;;5087048;28;20419;-51
2021/10/04 02:05:11;;;;;;;7.25;3.33;;;11.10;99.90;;;;;;5089187;28;20051;-46
2021/10/04 02:07:39;;;;;;;6.85;3.97;;;11.00;99.90;;;;;;5108248;28;20054;-45
2021/10/04 02:10:13;;;;;;;8.20;3.28;;;11.10;99.90;;;;;;5105445;28;20056;-45
2021/10/04 02:12:41;;;;;;;11.15;3.50;;;11.10;99.90;;;;;;5105984;28;20079;-44
2021/10/04 02:15:08;;;;;;;7.30;3.03;;;11.00;99.90;;;;;;5105252;28;20055;-46
2021/10/04 02:17:36;;;;;;;5.05;3.10;;;11.10;99.90;;;;;;5107352;28;20801;-47
2021/10/04 02:20:11;;;;;;;8.20;3.13;;;11.10;99.90;;;;;;5088719;28;20048;-45
2021/10/04 02:22:37;;;;;;;8.10;3.33;;;11.10;99.90;;;;;;5104846;28;20056;-46
2021/10/04 02:25:03;;;;;;;8.10;3.40;;;11.10;99.90;;;;;;5105258;28;20109;-44
2021/10/04 02:27:35;;;;;;;6.95;2.90;;;11.10;99.90;;;;;;5106628;28;20051;-48
2021/10/04 02:30:01;;;;;;;7.65;3.20;;;11.10;99.90;;;;;;5106063;28;20058;-46
2021/10/04 02:32:28;;;;;;;8.98;3.80;;;11.10;99.90;;;;;;5105312;28;20144;-44
2021/10/04 02:34:54;;;;;;;6.07;2.97;;;11.10;99.90;;;;;;5105251;28;20872;-48
2021/10/04 02:37:20;;;;;;;6.47;2.83;;;11.10;99.90;;;;;;5106986;28;20135;-45
2021/10/04 02:39:46;;;;;;;7.85;2.80;;;11.10;99.90;;;;;;5108830;28;20161;-48
2021/10/04 02:42:12;;;;;;;6.88;3.17;;;11.20;99.90;;;;;;5108582;28;20052;-51
2021/10/04 02:44:42;;;;;;;6.68;3.50;;;11.20;99.90;;;;;;5107081;28;20099;-44
2021/10/04 02:47:08;;;;;;;5.50;3.15;;;11.20;99.90;;;;;;5107337;28;20440;-46
2021/10/04 02:49:36;;;;;;;6.32;3.10;;;11.20;99.90;;;;;;5109349;28;20130;-44
2021/10/04 02:52:05;;;;;;;6.40;3.28;;;11.20;99.90;;;;;;5107536;28;20108;-44
2021/10/04 02:54:33;;;;;;;6.82;2.80;;;11.10;99.90;;;;;;5106218;28;20067;-46
2021/10/04 02:57:00;;;;;;;8.13;3.38;;;11.20;99.90;;;;;;5090471;28;20055;-47
2021/10/04 02:59:25;;;;;;;6.13;2.78;;;11.10;99.90;;;;;;5108332;28;20059;-44
2021/10/04 03:01:52;;;;;;;9.60;3.03;;;11.10;99.90;;;;;;5108547;28;20056;-45
2021/10/04 03:04:18;;;;;;;4.82;2.72;;;11.20;99.90;;;;;;5106754;28;20526;-44
2021/10/04 03:06:45;;;;;;;6.65;2.75;;;11.20;99.90;;;;;;5107669;28;20104;-45
2021/10/04 03:09:11;;;;;;;6.32;2.72;;;11.20;99.90;;;;;;5109582;28;20059;-46
2021/10/04 03:11:37;;;;;;;6.05;3.00;;;11.20;99.90;;;;;;5108218;28;20066;-48
2021/10/04 03:14:04;;;;;;;8.55;3.10;;;11.20;99.90;;;;;;5090216;28;20055;-44
2021/10/04 03:16:30;;;;;;;8.73;3.03;;;11.10;99.90;;;;;;5107509;28;20083;-44
2021/10/04 03:18:56;;;;;;;7.07;2.83;;;11.10;99.90;;;;;;5107267;28;20044;-46
2021/10/04 03:21:22;;;;;;;5.30;2.88;;;11.00;99.90;;;;;;5108483;28;20514;-45
2021/10/04 03:23:49;;;;;;;6.65;2.83;;;11.00;99.90;;;;;;5107593;28;20052;-48
2021/10/04 03:26:15;;;;;;;4.63;2.50;;;11.00;99.90;;;;;;5104879;28;20108;-45
2021/10/04 03:28:41;;;;;;;8.40;2.95;;;10.90;99.90;;;;;;5088365;28;20058;-44
2021/10/04 03:31:07;;;;;;;5.35;2.80;;;10.90;99.90;;;;;;5107364;28;21630;-45
2021/10/04 03:33:35;;;;;;;10.02;2.67;;;10.90;99.90;;;;;;5109207;28;20078;-48
2021/10/04 03:36:03;;;;;;;9.23;3.10;;;10.90;99.90;;;;;;5108445;28;20051;-46
2021/10/04 03:38:32;;;;;;;7.95;2.92;;;10.90;99.90;;;;;;5106167;28;20772;-45
2021/10/04 03:40:58;;;;;;;6.60;3.17;;;10.80;99.90;;;;;;5108518;28;20055;-45
2021/10/04 03:43:24;;;;;;;8.10;3.00;;;10.80;99.90;;;;;;5107697;28;20043;-46
2021/10/04 03:45:56;;;;;;;;;;;10.80;99.90;;;;;;5110004;28;20584;-44
2021/10/04 03:48:22;;;;;;;6.70;2.78;;;10.80;99.90;;;;;;5108064;28;19974;-49
2021/10/04 03:50:48;;;;;;;6.70;3.15;;;10.80;99.90;;;;;;5090431;28;20094;-45
2021/10/04 03:53:14;;;;;;;9.77;2.65;;;10.80;99.90;;;;;;5107281;28;20051;-46
2021/10/04 03:55:43;;;;;;;6.55;2.80;;;10.80;99.90;;;;;;5106474;28;20055;-45
2021/10/04 03:58:09;;;;;;;9.95;3.60;;;10.80;99.90;;;;;;5109235;28;20055;-45
2021/10/04 04:00:35;;;;;;;9.65;3.35;;;10.80;99.90;;;;;;5108389;28;20568;-46
2021/10/04 04:03:04;;;;;;;6.40;2.92;;;10.80;99.90;;;;;;5108314;28;20416;-44
2021/10/04 04:05:33;;;;;;;6.10;3.55;;;10.80;99.90;;;;;;5108917;28;20082;-47
2021/10/04 04:08:02;;;;;;;5.68;2.70;;;10.70;99.90;;;;;;5109343;28;20055;-46
2021/10/04 04:10:28;;;;;;;8.27;2.97;;;10.80;99.90;;;;;;5109254;28;20415;-45
2021/10/04 04:12:54;;;;;;;7.22;3.08;;;10.80;99.90;;;;;;5107743;28;20048;-47
2021/10/04 04:15:20;;;;;;;10.63;3.33;;;10.70;99.90;;;;;;5108596;28;20054;-48
2021/10/04 04:17:46;;;;;;;8.05;3.15;;;10.70;99.90;;;;;;5090814;28;20044;-45
2021/10/04 04:20:12;;;;;;;6.15;2.65;;;10.70;99.90;;;;;;5108996;28;20051;-44
2021/10/04 04:22:38;;;;;;;7.15;2.90;;;10.70;99.90;;;;;;5108844;28;20179;-46
2021/10/04 04:25:05;;;;;;;7.38;3.03;;;10.70;99.90;;;;;;5107605;28;20059;-45
2021/10/04 04:27:31;;;;;;;7.70;2.80;;;10.70;99.90;;;;;;5103474;28;20044;-46
2021/10/04 04:29:58;;;;;;;6.63;2.78;;;10.60;99.90;;;;;;5107870;28;20507;-49
2021/10/04 04:32:24;;;;;;;5.72;2.75;;;10.60;99.90;;;;;;5107576;28;20036;-47
2021/10/04 04:34:50;;;;;;;6.00;3.50;;;10.60;99.90;;;;;;5107894;28;20040;-47
2021/10/04 04:37:16;;;;;;;5.75;2.90;;;10.60;99.90;;;;;;5108558;28;20048;-44
2021/10/04 04:39:42;;;;;;;7.18;3.15;;;10.60;99.90;;;;;;5107900;28;20058;-44
2021/10/04 04:42:08;;;;;;;6.95;2.92;;;10.60;99.90;;;;;;5108531;28;20562;-44
2021/10/04 04:44:37;;;;;;;7.25;2.60;;;10.60;99.90;;;;;;5106757;28;20043;-44
2021/10/04 04:47:05;;;;;;;7.57;2.72;;;10.60;99.90;;;;;;5090784;28;20064;-45
2021/10/04 04:49:31;;;;;;;12.07;2.75;;;10.60;99.90;;;;;;5107036;28;20058;-47
2021/10/04 04:51:58;;;;;;;6.45;2.70;;;10.60;99.90;;;;;;5107242;28;20055;-46
2021/10/04 04:54:25;;;;;;;8.68;2.97;;;10.60;99.90;;;;;;5107959;28;20055;-44
2021/10/04 04:56:55;;;;;;;5.28;2.38;;;10.60;99.90;;;;;;5105485;28;20463;-46
2021/10/04 04:59:23;;;;;;;5.38;2.47;;;10.60;99.90;;;;;;5100019;28;20058;-45
2021/10/04 05:01:52;;;;;;;8.65;2.78;;;10.60;99.90;;;;;;5106051;28;20067;-45
2021/10/04 05:04:18;;;;;;;7.93;2.42;;;10.60;99.90;;;;;;5106269;28;20130;-45
2021/10/04 05:06:44;;;;;;;6.75;2.53;;;10.60;99.90;;;;;;5106575;28;20050;-44
2021/10/04 05:09:10;;;;;;;6.32;2.35;;;10.50;99.90;;;;;;5108250;28;20784;-45
2021/10/04 05:11:38;;;;;;;6.45;2.67;;;10.50;99.90;;;;;;5107079;28;20096;-45
2021/10/04 05:14:05;;;;;;;9.32;2.80;;;10.50;99.90;;;;;;5089329;28;20066;-44
2021/10/04 05:16:31;;;;;;;7.78;2.45;;;10.50;99.90;;;;;;5102653;28;20519;-45
2021/10/04 05:18:59;;;;;;;7.80;2.50;;;10.50;99.90;;;;;;5078653;28;20055;-44
2021/10/04 05:21:25;;;;;;;7.22;2.40;;;10.50;99.90;;;;;;5095237;28;20445;-44
2021/10/04 05:23:51;;;;;;;6.38;2.75;;;10.50;99.90;;;;;;5101060;28;20039;-45
2021/10/04 05:26:17;;;;;;;11.30;3.13;;;10.50;99.90;;;;;;5103558;28;20100;-48
2021/10/04 05:28:43;;;;;;;7.40;2.92;;;10.50;99.90;;;;;;5104906;28;20097;-44
2021/10/04 05:31:15;;;;;;;6.40;2.55;;;10.50;99.90;;;;;;5088525;28;20052;-47
2021/10/04 05:33:41;;;;;;;7.00;3.40;;;10.60;99.90;;;;;;5088043;28;20104;-44
2021/10/04 05:36:10;;;;;;;8.50;2.95;;;10.60;99.90;;;;;;5105419;28;20056;-45
2021/10/04 05:38:38;;;;;;;8.07;2.90;;;10.60;99.90;;;;;;5107338;28;20052;-46
2021/10/04 05:41:05;;;;;;;8.73;2.75;;;10.60;99.90;;;;;;5106626;28;20053;-45
2021/10/04 05:43:34;;;;;;;5.70;2.88;;;10.70;99.90;;;;;;5105835;28;20538;-44
2021/10/04 05:46:02;;;;;;;7.90;3.00;;;10.60;99.90;;;;;;5103577;28;20112;-44
2021/10/04 05:48:28;;;;;;;7.18;3.05;;;10.60;99.90;;;;;;5104836;28;20785;-48
2021/10/04 05:50:54;;;;;;;8.07;2.83;;;10.60;99.90;;;;;;5103626;28;20055;-46
2021/10/04 05:53:21;;;;;;;7.55;2.50;;;10.60;99.90;;;;;;5103779;28;20071;-49
2021/10/04 05:55:48;;;;;;;9.15;2.90;;;10.60;99.90;;;;;;5104699;28;20138;-48
2021/10/04 05:58:15;;;;;;;4.70;2.63;;;10.70;99.90;;;;;;5102339;28;20144;-48
2021/10/04 06:00:44;;;;;;;7.68;2.97;;;10.70;99.90;;;;;;5100204;28;20163;-48
2021/10/04 06:03:11;;;;;;;7.05;2.72;;;10.70;99.90;;;;;;5082417;28;20052;-48
2021/10/04 06:05:37;;;;;;;90.75;80.30;;;10.70;99.90;;;;;;5081491;28;20056;-49
2021/10/04 06:08:03;;;;;;;10.25;5.30;;;10.80;99.90;;;;;;5094572;28;20044;-52
2021/10/04 06:10:30;;;;;;;10.63;4.80;;;10.80;99.90;;;;;;5108912;28;20067;-47
2021/10/04 06:12:59;;;;;;;12.95;8.38;;;10.80;99.90;;;;;;5110012;27;20047;-51
2021/10/04 06:15:26;;;;;;;10.02;4.88;;;10.80;99.90;;;;;;5109721;28;20055;-47
2021/10/04 06:17:52;;;;;;;25.20;16.40;;;10.90;99.90;;;;;;5110409;28;20503;-47
2021/10/04 06:20:18;;;;;;;10.27;5.93;;;10.90;99.90;;;;;;5109622;28;20101;-49
2021/10/04 06:22:47;;;;;;;43.35;29.30;;;10.90;99.90;;;;;;5091340;28;20511;-47
2021/10/04 06:25:18;;;;;;;75.10;59.80;;;11.00;99.90;;;;;;5091382;28;20047;-45
2021/10/04 06:27:46;;;;;;;21.95;17.75;;;11.00;99.90;;;;;;5110277;28;20059;-50
2021/10/04 06:30:13;;;;;;;10.07;6.32;;;11.10;99.90;;;;;;5110182;28;20441;-47
2021/10/04 06:32:39;;;;;;;13.50;9.35;;;11.10;99.90;;;;;;5110493;28;20052;-48
2021/10/04 06:35:08;;;;;;;41.90;33.40;;;11.00;99.90;;;;;;5109990;28;20116;-48
2021/10/04 06:37:37;;;;;;;6.93;3.42;;;11.00;99.90;;;;;;5110472;28;20609;-45
2021/10/04 06:40:10;;;;;;;13.68;8.77;;;11.00;99.90;;;;;;5111774;28;20051;-48
2021/10/04 06:42:37;;;;;;;11.10;4.75;;;11.00;99.90;;;;;;5110569;28;20414;-48
2021/10/04 06:45:05;;;;;;;22.63;14.10;;;11.00;99.90;;;;;;5111489;28;20051;-49
2021/10/04 06:47:31;;;;;;;54.35;45.90;;;11.00;99.90;;;;;;5110425;28;20150;-47
2021/10/04 06:50:00;;;;;;;8.13;4.05;;;11.10;99.90;;;;;;5111044;28;20109;-51
2021/10/04 06:52:26;;;;;;;22.10;16.73;;;11.00;99.90;;;;;;5111305;28;20047;-48
2021/10/04 06:54:52;;;;;;;13.07;9.43;;;11.10;99.90;;;;;;5111038;28;20404;-48
2021/10/04 06:57:18;;;;;;;14.73;8.13;;;11.20;99.90;;;;;;5110216;28;20123;-47
2021/10/04 06:59:44;;;;;;;11.43;6.57;;;11.20;99.90;;;;;;5109123;28;20730;-49
2021/10/04 07:02:10;;;;;;;12.50;6.70;;;11.20;99.90;;;;;;5101689;28;20052;-45
2021/10/04 07:04:42;;;;;;;8.18;3.67;;;11.30;99.90;;;;;;5111701;28;20119;-49
2021/10/04 07:07:09;;;;;;;;;;;11.20;99.90;;;;;;5110796;28;20497;-46
2021/10/04 07:09:35;;;;;;;11.40;6.70;;;11.30;99.90;;;;;;5108993;28;19988;-48
2021/10/04 07:12:02;;;;;;;6.80;3.03;;;11.30;99.90;;;;;;5091464;28;20048;-46
2021/10/04 07:14:30;;;;;;;9.23;3.20;;;11.30;99.90;;;;;;5110737;28;20558;-47
2021/10/04 07:16:56;;;;;;;10.20;6.20;;;11.40;99.90;;;;;;5111396;28;20055;-46
2021/10/04 07:19:22;;;;;;;8.02;3.58;;;11.40;99.90;;;;;;5111275;28;20059;-48
2021/10/04 07:21:53;;;;;;;8.13;3.92;;;11.40;99.90;;;;;;5092532;28;20048;-45
2021/10/04 07:24:22;;;;;;;7.22;3.50;;;11.40;99.90;;;;;;5107599;28;20048;-45
2021/10/04 07:26:49;;;;;;;8.02;3.25;;;11.40;99.90;;;;;;5092443;28;20044;-48
2021/10/04 07:29:16;;;;;;;6.70;2.72;;;11.50;99.90;;;;;;5110144;28;20496;-48
2021/10/04 07:31:42;;;;;;;5.28;2.40;;;11.50;99.90;;;;;;5110337;28;20130;-47
2021/10/04 07:34:09;;;;;;;8.25;2.83;;;11.50;99.90;;;;;;5110300;28;20770;-45
2021/10/04 07:36:35;;;;;;;7.45;3.67;;;11.50;99.90;;;;;;5111029;28;20508;-48
2021/10/04 07:39:07;;;;;;;18.60;13.40;;;11.50;99.90;;;;;;5092580;28;20087;-44
2021/10/04 07:41:34;;;;;;;18.35;13.02;;;11.60;99.90;;;;;;5075915;28;20112;-45
2021/10/04 07:44:00;;;;;;;35.28;26.85;;;11.60;99.90;;;;;;5100149;28;20105;-48
2021/10/04 07:46:26;;;;;;;8.57;4.63;;;11.70;99.90;;;;;;5102860;28;20051;-46
2021/10/04 07:48:53;;;;;;;14.93;8.18;;;11.70;99.90;;;;;;5092097;28;20051;-43
2021/10/04 07:51:19;;;;;;;15.73;6.95;;;11.70;99.90;;;;;;5109998;28;20052;-45
2021/10/04 07:53:46;;;;;;;9.25;5.55;;;11.70;99.90;;;;;;5110210;28;20107;-48
2021/10/04 07:56:13;;;;;;;5.95;2.97;;;11.80;99.90;;;;;;5109900;28;20055;-48
2021/10/04 07:58:39;;;;;;;9.48;4.28;;;11.80;99.90;;;;;;5109985;28;20059;-47
2021/10/04 08:01:05;;;;;;;8.45;3.42;;;11.80;99.90;;;;;;5108579;28;20594;-47
2021/10/04 08:03:31;;;;;;;8.07;4.03;;;11.90;99.90;;;;;;5108244;28;20513;-49
2021/10/04 08:05:59;;;;;;;8.68;4.68;;;11.90;99.90;;;;;;5109695;28;20055;-48
2021/10/04 08:08:25;;;;;;;4.28;3.08;;;12.00;99.90;;;;;;5109162;28;20054;-47
2021/10/04 08:10:51;;;;;;;8.07;3.65;;;12.10;99.90;;;;;;5091278;28;20048;-49
2021/10/04 08:13:17;;;;;;;6.53;3.10;;;12.10;99.90;;;;;;5110061;28;20118;-47
2021/10/04 08:15:44;;;;;;;8.40;2.90;;;12.20;99.90;;;;;;5110001;28;20051;-45
2021/10/04 08:18:10;;;;;;;10.13;4.38;;;12.20;99.90;;;;;;5075095;28;20082;-49
2021/10/04 08:20:36;;;;;;;6.68;2.85;;;12.30;99.90;;;;;;5091533;28;20108;-45
2021/10/04 08:23:03;;;;;;;7.93;3.08;;;12.20;99.90;;;;;;5109596;28;20056;-48
2021/10/04 08:25:29;;;;;;;67.75;58.35;;;12.40;99.90;;;;;;5110435;28;20054;-46
2021/10/04 08:27:55;;;;;;;6.85;4.15;;;12.40;99.90;;;;;;5110272;28;20056;-45
2021/10/04 08:30:21;;;;;;;15.05;4.93;;;12.40;99.90;;;;;;5108455;28;20478;-46
2021/10/04 08:32:47;;;;;;;10.57;7.78;;;12.50;99.90;;;;;;5109446;28;20047;-48
2021/10/04 08:35:13;;;;;;;11.27;6.38;;;12.50;99.90;;;;;;5108904;28;20063;-50
2021/10/04 08:37:40;;;;;;;21.63;16.00;;;12.50;99.90;;;;;;5091368;28;20542;-46
2021/10/04 08:40:10;;;;;;;8.15;2.53;;;12.50;99.90;;;;;;5109795;28;20063;-47
2021/10/04 08:42:37;;;;;;;8.70;3.85;;;13.10;99.90;;;;;;5108133;28;20360;-48
2021/10/04 08:45:05;;;;;;;5.00;2.10;;;13.80;99.90;;;;;;5110099;28;20055;-48
2021/10/04 08:47:37;;;;;;;6.28;2.20;;;14.90;99.90;;;;;;5109971;28;20101;-48
2021/10/04 08:50:06;;;;;;;7.63;4.18;;;15.90;99.90;;;;;;5091669;28;20055;-46
2021/10/04 08:52:32;;;;;;;5.07;1.70;;;16.70;99.90;;;;;;5091220;28;20112;-46
2021/10/04 08:54:58;;;;;;;3.15;1.75;;;16.90;99.90;;;;;;5108981;28;20082;-48
2021/10/04 08:57:25;;;;;;;5.35;2.58;;;16.80;99.90;;;;;;5090842;28;20598;-46
2021/10/04 08:59:51;;;;;;;7.43;2.72;;;17.00;99.90;;;;;;5109350;28;20047;-48
2021/10/04 09:02:27;;;;;;;6.68;1.65;;;17.60;99.90;;;;;;5109012;28;20419;-47
2021/10/04 09:05:32;;;;;;;6.28;1.27;;;17.60;99.90;;;;;;5090877;28;20051;-49
2021/10/04 09:08:10;;;;;;;;;;;18.10;99.90;;;;;;5046517;28;20142;-48
2021/10/04 09:10:41;;;;;;;3.20;1.52;;;18.80;99.90;;;;;;5045558;28;20017;-46
2021/10/04 09:13:14;;;;;;;4.03;1.50;;;19.40;99.90;;;;;;5045733;28;20077;-47
2021/10/04 09:15:45;;;;;;;6.75;1.98;;;19.60;99.90;;;;;;5045760;28;20135;-50
2021/10/04 09:18:31;;;;;;;5.65;1.65;;;19.80;99.90;;;;;;5028684;28;20540;-48
2021/10/04 09:21:03;;;;;;;6.82;3.42;;;20.40;99.90;;;;;;5045253;28;20045;-47
2021/10/04 09:23:44;;;;;;;6.82;4.00;;;20.70;99.90;;;;;;5039233;28;20048;-47
2021/10/04 09:26:26;;;;;;;46.60;41.55;;;20.80;95.50;;;;;;5027846;28;20080;-48
2021/10/04 09:29:04;;;;;;;5.93;3.65;;;21.00;99.90;;;;;;5027007;28;20063;-47
2021/10/04 09:31:41;;;;;;;18.40;12.20;;;21.70;99.90;;;;;;5039290;28;20044;-50
2021/10/04 09:34:19;;;;;;;6.43;1.88;;;21.30;90.50;;;;;;5043743;28;20535;-47
2021/10/04 09:36:50;;;;;;;6.63;3.83;;;21.00;99.90;;;;;;5044579;28;20057;-48
2021/10/04 09:39:30;;;;;;;8.80;3.22;;;21.20;99.90;;;;;;5042520;28;20048;-49
2021/10/04 09:42:05;;;;;;;4.82;1.60;;;21.30;99.90;;;;;;5075282;28;20059;-49
2021/10/04 09:44:46;;;;;;;8.40;4.10;;;21.70;96.90;;;;;;5096156;28;20055;-50
2021/10/04 09:47:14;;;;;;;;;;;21.60;91.10;;;;;;5110577;28;20055;-47
2021/10/04 09:50:12;;;;;;;6.78;2.88;;;21.50;90.20;;;;;;5111557;28;20299;-46
2021/10/04 09:52:44;;;;;;;6.45;2.20;;;21.90;87.30;;;;;;5113002;28;20075;-47
2021/10/04 09:55:13;;;;;;;6.18;3.25;;;22.20;99.90;;;;;;5111049;28;20043;-47
2021/10/04 09:57:41;;;;;;;;;;;22.20;96.50;;;;;;5112273;28;20051;-49
2021/10/04 10:00:14;;;;;;;10.23;5.85;;;22.20;76.30;;;;;;5112462;28;19928;-45
2021/10/04 10:02:40;;;;;;;6.85;2.90;;;22.50;93.10;;;;;;5112737;28;20142;-49
2021/10/04 10:05:07;;;;;;;6.30;2.03;;;22.60;95.00;;;;;;5112683;28;20128;-50
2021/10/04 10:07:33;;;;;;;11.68;8.30;;;22.50;87.90;;;;;;5094897;28;20043;-47
2021/10/04 10:10:00;;;;;;;7.45;2.30;;;22.60;86.00;;;;;;5112446;28;20511;-48
2021/10/04 10:12:29;;;;;;;10.20;6.43;;;22.60;88.00;;;;;;5093129;28;20136;-47
2021/10/04 10:14:56;;;;;;;6.30;3.20;;;22.80;80.80;;;;;;5111679;28;20060;-46
2021/10/04 10:17:34;;;;;;;7.65;2.15;;;23.00;84.90;;;;;;5111293;28;20102;-44
2021/10/04 10:20:03;;;;;;;4.63;2.30;;;23.40;78.40;;;;;;5111112;28;20052;-46
2021/10/04 10:22:44;;;;;;;5.65;2.15;;;23.80;84.30;;;;;;5111286;28;20058;-46
2021/10/04 10:25:29;;;;;;;7.55;1.70;;;23.90;77.60;;;;;;5091787;28;20581;-49
2021/10/04 10:27:56;;;;;;;5.22;2.28;;;23.30;66.10;;;;;;5107549;28;20059;-48
2021/10/04 10:30:27;;;;;;;6.32;1.98;;;23.70;73.00;;;;;;5104023;28;20056;-48
2021/10/04 10:32:57;;;;;;;11.35;7.40;;;24.10;71.60;;;;;;5102333;28;20233;-47
2021/10/04 10:35:48;;;;;;;6.93;3.55;;;23.90;70.80;;;;;;5111289;28;20043;-48
2021/10/04 10:38:58;;;;;;;9.85;5.38;;;24.20;66.50;;;;;;5111988;28;20112;-47
2021/10/04 10:41:30;;;;;;;6.65;3.35;;;23.90;63.40;;;;;;5103970;28;20531;-44
2021/10/04 10:44:12;;;;;;;4.82;2.15;;;23.40;63.30;;;;;;5107552;28;20054;-47
2021/10/04 10:46:53;;;;;;;9.25;6.90;;;24.10;66.30;;;;;;5107026;28;20062;-47
2021/10/04 10:49:59;;;;;;;8.82;2.70;;;24.10;64.00;;;;;;5108391;28;20582;-48
2021/10/04 10:52:30;;;;;;;7.32;2.45;;;24.00;63.30;;;;;;5108044;28;20492;-45
2021/10/04 10:55:03;;;;;;;8.02;4.07;;;24.10;61.80;;;;;;5108862;28;20043;-43
2021/10/04 10:57:47;;;;;;;6.72;1.20;;;24.10;63.10;;;;;;5108257;28;20130;-48
2021/10/04 11:00:22;;;;;;;6.00;1.40;;;24.30;61.80;;;;;;5108427;28;20080;-46
2021/10/04 11:03:18;;;;;;;8.55;2.65;;;24.20;62.90;;;;;;5108607;28;20058;-51
2021/10/04 11:05:56;;;;;;;3.53;0.95;;;25.00;61.70;;;;;;5108498;28;20059;-51
2021/10/04 11:08:29;;;;;;;6.85;1.13;;;24.70;61.00;;;;;;5107493;28;20108;-49
2021/10/04 11:10:57;;;;;;;5.20;1.58;;;24.70;59.50;;;;;;5071624;28;20483;-46
2021/10/04 11:13:27;;;;;;;5.85;3.00;;;24.40;61.40;;;;;;5109268;28;20043;-48
2021/10/04 11:15:59;;;;;;;5.63;1.38;;;24.40;60.90;;;;;;5108656;28;20134;-48
2021/10/04 11:18:40;;;;;;;3.78;1.10;;;24.60;61.00;;;;;;5105176;28;20055;-44
2021/10/04 11:21:10;;;;;;;5.65;1.10;;;24.50;60.30;;;;;;5107289;28;20445;-43
2021/10/04 11:23:44;;;;;;;6.57;1.25;;;24.50;59.50;;;;;;5109492;28;20052;-46
2021/10/04 11:26:18;;;;;;;4.35;0.95;;;24.00;58.30;;;;;;5108651;28;20403;-47
2021/10/04 11:28:49;;;;;;;6.97;1.20;;;23.60;58.40;;;;;;5095911;28;20114;-44
2021/10/04 11:31:23;;;;;;;6.97;1.58;;;23.20;59.00;;;;;;5103944;28;20063;-46
2021/10/04 11:34:05;;;;;;;6.13;1.08;;;23.30;59.00;;;;;;5109640;28;20067;-45
2021/10/04 11:36:38;;;;;;;;;;;23.60;59.10;;;;;;5110956;28;20518;-47
2021/10/04 11:39:26;;;;;;;4.38;0.90;;;23.90;59.40;;;;;;5109634;28;20317;-44
2021/10/04 11:42:12;;;;;;;6.03;1.35;;;24.60;59.90;;;;;;5108556;28;20719;-43
2021/10/04 11:44:45;;;;;;;6.40;1.23;;;24.90;55.40;;;;;;5102131;28;20050;-44
2021/10/04 11:47:13;;;;;;;5.35;0.85;;;24.40;54.20;;;;;;5093699;28;20051;-45
2021/10/04 11:49:45;;;;;;;6.43;1.35;;;24.50;56.80;;;;;;5095345;28;20101;-49
2021/10/04 11:52:17;;;;;;;4.22;0.90;;;25.10;56.80;;;;;;5109451;28;20044;-48
2021/10/04 11:54:54;;;;;;;4.53;0.98;;;25.70;55.20;;;;;;5109858;28;20047;-43
2021/10/04 11:57:20;;;;;;;6.07;1.30;;;25.20;53.30;;;;;;5110390;28;20087;-47
2021/10/04 11:59:55;;;;;;;3.90;0.95;;;25.20;55.60;;;;;;5110259;28;20055;-45
2021/10/04 12:02:25;;;;;;;5.60;1.20;;;25.60;52.50;;;;;;5109357;28;20059;-44
2021/10/04 12:04:52;;;;;;;4.90;1.48;;;24.90;52.30;;;;;;5109936;28;20096;-47
2021/10/04 12:07:21;;;;;;;6.45;1.48;;;24.80;53.20;;;;;;5110247;28;20529;-45
2021/10/04 12:09:58;;;;;;;7.68;1.30;;;25.20;53.40;;;;;;5107827;28;20491;-40
2021/10/04 12:12:36;;;;;;;6.00;1.70;;;24.30;52.60;;;;;;5071737;28;20055;-44
2021/10/04 12:15:05;;;;;;;4.75;1.20;;;25.00;53.40;;;;;;5098546;28;20055;-42
2021/10/04 12:17:38;;;;;;;4.90;1.45;;;25.20;55.70;;;;;;5109991;28;20852;-45
2021/10/04 12:20:21;;;;;;;4.57;1.58;;;25.70;53.20;;;;;;5109563;28;20212;-41
2021/10/04 12:22:50;;;;;;;3.80;1.10;;;25.30;49.90;;;;;;5109402;28;20052;-47
2021/10/04 12:25:36;;;;;;;7.45;2.55;;;25.10;52.10;;;;;;5109952;28;20059;-45
2021/10/04 12:28:18;;;;;;;5.63;1.50;;;25.30;50.90;;;;;;5088995;28;20160;-47
2021/10/04 12:30:48;;;;;;;4.75;0.90;;;25.30;52.70;;;;;;5109064;28;20101;-45
2021/10/04 12:33:18;;;;;;;5.70;1.10;;;25.40;51.80;;;;;;5109270;28;20135;-47
2021/10/04 12:35:48;;;;;;;4.28;1.00;;;25.30;52.50;;;;;;5091310;28;20062;-44
2021/10/04 12:38:16;;;;;;;6.45;1.55;;;24.60;49.90;;;;;;5109496;28;20063;-46
2021/10/04 12:40:58;;;;;;;5.00;1.02;;;25.10;53.50;;;;;;5108184;28;20047;-50
2021/10/04 12:43:25;;;;;;;;;;;24.60;51.60;;;;;;5109935;28;20207;-46
2021/10/04 12:45:55;;;;;;;7.60;6.47;;;23.90;50.60;;;;;;5109179;28;19923;-45
2021/10/04 12:48:22;;;;;;;6.40;0.90;;;24.10;52.70;;;;;;5108826;28;20107;-47
2021/10/04 12:50:50;;;;;;;3.95;1.13;;;23.60;52.90;;;;;;5108909;28;20082;-43
2021/10/04 12:53:19;;;;;;;3.72;1.38;;;23.10;54.20;;;;;;5109315;28;20055;-46
2021/10/04 12:55:59;;;;;;;6.25;3.05;;;23.80;54.80;;;;;;5108908;28;20055;-45
2021/10/04 12:58:31;;;;;;;4.35;1.20;;;23.70;53.50;;;;;;5109899;28;20055;-43